KCLK/CLK METAR and TAF weather

Enter ICAO airport designator
Station Type Date Time Source
KCLK METAR 2021/03/01 21:55 UTC NOAA

KCLK 012155Z AUTO 35006KT 10SM CLR 13/M12 A3034 RMK AO2


Station Type Date Time Source
KCLK Decoded METAR 2021/03/01 21:55 UTC NOAA

Clinton, Clinton Regional Airport, OK, United States (KCLK) 35-32-17N 098-55-17W
Mar 01, 2021 - 04:55 PM EST / 2021.03.01 2155 UTC
Wind: from the N (350 degrees) at 7 MPH (6 KT):0
Visibility: 10 mile(s):0
Sky conditions: clear
Temperature: 55 F (13 C)
Dew Point: 10 F (-12 C)
Relative Humidity: 16%
Pressure (altimeter): 30.34 in. Hg (1027 hPa)
ob: KCLK 012155Z AUTO 35006KT 10SM CLR 13/M12 A3034 RMK AO2
cycle: 22

Station Type Date Time Source
KCLK TAF UTC NOAA

Error!

Example: see airport list